Mariner Of The Seas — C6FV9 — position and weather

sailwx.info

Track history (hours):
 
Tides and Currents Weather Stations Pressure Air Temp Water Temp Dewpoint Dewpoint Depression Visibility Wind Speed Wind Dir Waves Ship Positions

Mariner Of The Seas

Operator: Royal Caribbean Cruises Ltd

Last reported at 2015-Aug-30 13:33 UTC. Time now 2015-Sep-01 06:04 UTC.
Position N 33°52' E 130°12'.

Type: Passenger vessel. MMSI: 311493000.

Date/timePositionNaut miles runAvg speedWind from/ knotsBaromVisibWave heightAir tempDewpointWater temp
2015-Aug-30 13:33N 33°52' E 130°12'1312.8
2015-Aug-30 12:33N 33°40' E 130°16'7 5.4
2015-Aug-30 11:16N 33°37' E 130°24'0 0.0
2015-Aug-30 10:31N 33°37' E 130°24'0 0.0
2015-Aug-30 09:31N 33°37' E 130°24'0 0.0
2015-Aug-30 04:16N 33°37' E 130°24'0 0.0
2015-Aug-30 03:25N 33°37' E 130°24'0 0.2
2015-Aug-30 02:33N 33°37' E 130°24'1010.0
2015-Aug-30 01:34N 33°44' E 130°15'35616.1
2015-Aug-29 03:29N 36°41' E 123°57'4321.0
2015-Aug-29 01:27N 37°16' E 123°27'1920.1
2015-Aug-29 00:30N 37°30' E 123°10'9920.1
2015-Aug-28 19:33N 38°22' E 121°22'16318.0
2015-Aug-28 10:29N 38°57' E 117°58'7 7.9
2015-Aug-28 09:33N 38°59' E 117°49'0 0.0
2015-Aug-28 08:33N 38°59' E 117°49'0 0.0
2015-Aug-28 07:15N 38°59' E 117°49'0 0.0
2015-Aug-28 06:09N 38°59' E 117°49'0 0.0
2015-Aug-28 04:33N 38°59' E 117°49'0 0.0
2015-Aug-28 03:33N 38°59' E 117°49'0 0.0
2015-Aug-28 02:27N 38°59' E 117°49'0 0.0
2015-Aug-28 01:33N 38°59' E 117°49'0 0.0
2015-Aug-28 00:33N 38°59' E 117°49'1 1.0
2015-Aug-27 23:33N 38°58' E 117°50'1413.8
2015-Aug-27 22:31N 38°55' E 118°08'6211.9
2015-Aug-27 17:17N 38°45' E 119°27'911.8
2015-Aug-27 16:32N 38°44' E 119°38'1411.9
2015-Aug-27 15:22N 38°42' E 119°55'1012.0
2015-Aug-27 14:33N 38°41' E 120°08'  
2015-Aug-24 02:09N 38°28' E 121°07'14714.6
2015-Aug-23 16:04N 38°56' E 118°02'714.2
2015-Aug-23 15:34N 38°57' E 117°53'3 3.0
2015-Aug-23 14:24N 38°59' E 117°49'0 0.0
2015-Aug-23 13:30N 38°59' E 117°49'0 0.0
2015-Aug-23 12:24N 38°59' E 117°49'0 0.0
2015-Aug-23 08:30N 38°59' E 117°49'1 1.4
2015-Aug-23 07:33N 38°58' E 117°50'18116.4
2015-Aug-22 20:34N 38°18' E 121°36'1918.0
2015-Aug-22 19:30N 38°09' E 121°57'1717.7
2015-Aug-22 18:33N 38°00' E 122°16'1817.6
2015-Aug-22 17:33N 37°51' E 122°35'1817.8
2015-Aug-22 16:33N 37°42' E 122°54'1918.2
2015-Aug-22 15:31N 37°33' E 123°15'40016.7
2015-Aug-21 15:32N 33°42' E 129°57'1515.5
2015-Aug-21 14:33N 33°44' E 130°15'11 9.7
2015-Aug-21 13:25N 33°37' E 130°24'0 0.0
2015-Aug-21 12:30N 33°37' E 130°24'0 0.0
2015-Aug-21 11:30N 33°37' E 130°24'0 0.0
2015-Aug-21 10:33N 33°37' E 130°24'0 0.0
2015-Aug-21 09:28N 33°37' E 130°24'0 0.0
2015-Aug-21 08:31N 33°37' E 130°24'0 0.0
2015-Aug-21 07:31N 33°37' E 130°24'0 0.0
2015-Aug-21 06:30N 33°37' E 130°24'0 0.2
2015-Aug-21 05:33N 33°37' E 130°24'9 9.2
2015-Aug-21 04:33N 33°43' E 130°15'  
Track history (hours):
 
Tides and Currents Weather Stations Pressure Air Temp Water Temp Dewpoint Dewpoint Depression Visibility Wind Speed Wind Dir Waves Ship Positions

Mariner Of The Seas

Operator: Royal Caribbean Cruises Ltd

Last reported at 2015-Aug-30 13:33 UTC. Time now 2015-Sep-01 06:04 UTC.
Position N 33°52' E 130°12'.

Type: Passenger vessel. MMSI: 311493000.

Date/timePositionNaut miles runAvg speedWind from/ knotsBaromVisibWave heightAir tempDewpointWater temp
2015-Aug-30 13:33N 33°52' E 130°12'1312.8
2015-Aug-30 12:33N 33°40' E 130°16'7 5.4
2015-Aug-30 11:16N 33°37' E 130°24'0 0.0
2015-Aug-30 10:31N 33°37' E 130°24'0 0.0
2015-Aug-30 09:31N 33°37' E 130°24'0 0.0
2015-Aug-30 04:16N 33°37' E 130°24'0 0.0
2015-Aug-30 03:25N 33°37' E 130°24'0 0.2
2015-Aug-30 02:33N 33°37' E 130°24'1010.0
2015-Aug-30 01:34N 33°44' E 130°15'35616.1
2015-Aug-29 03:29N 36°41' E 123°57'4321.0
2015-Aug-29 01:27N 37°16' E 123°27'1920.1
2015-Aug-29 00:30N 37°30' E 123°10'9920.1
2015-Aug-28 19:33N 38°22' E 121°22'16318.0
2015-Aug-28 10:29N 38°57' E 117°58'7 7.9
2015-Aug-28 09:33N 38°59' E 117°49'0 0.0
2015-Aug-28 08:33N 38°59' E 117°49'0 0.0
2015-Aug-28 07:15N 38°59' E 117°49'0 0.0
2015-Aug-28 06:09N 38°59' E 117°49'0 0.0
2015-Aug-28 04:33N 38°59' E 117°49'0 0.0
2015-Aug-28 03:33N 38°59' E 117°49'0 0.0
2015-Aug-28 02:27N 38°59' E 117°49'0 0.0
2015-Aug-28 01:33N 38°59' E 117°49'0 0.0
2015-Aug-28 00:33N 38°59' E 117°49'1 1.0
2015-Aug-27 23:33N 38°58' E 117°50'1413.8
2015-Aug-27 22:31N 38°55' E 118°08'6211.9
2015-Aug-27 17:17N 38°45' E 119°27'911.8
2015-Aug-27 16:32N 38°44' E 119°38'1411.9
2015-Aug-27 15:22N 38°42' E 119°55'1012.0
2015-Aug-27 14:33N 38°41' E 120°08'  
2015-Aug-24 02:09N 38°28' E 121°07'14714.6
2015-Aug-23 16:04N 38°56' E 118°02'714.2
2015-Aug-23 15:34N 38°57' E 117°53'3 3.0
2015-Aug-23 14:24N 38°59' E 117°49'0 0.0
2015-Aug-23 13:30N 38°59' E 117°49'0 0.0
2015-Aug-23 12:24N 38°59' E 117°49'0 0.0
2015-Aug-23 08:30N 38°59' E 117°49'1 1.4
2015-Aug-23 07:33N 38°58' E 117°50'18116.4
2015-Aug-22 20:34N 38°18' E 121°36'1918.0
2015-Aug-22 19:30N 38°09' E 121°57'1717.7
2015-Aug-22 18:33N 38°00' E 122°16'1817.6
2015-Aug-22 17:33N 37°51' E 122°35'1817.8
2015-Aug-22 16:33N 37°42' E 122°54'1918.2
2015-Aug-22 15:31N 37°33' E 123°15'40016.7
2015-Aug-21 15:32N 33°42' E 129°57'1515.5
2015-Aug-21 14:33N 33°44' E 130°15'11 9.7
2015-Aug-21 13:25N 33°37' E 130°24'0 0.0
2015-Aug-21 12:30N 33°37' E 130°24'0 0.0
2015-Aug-21 11:30N 33°37' E 130°24'0 0.0
2015-Aug-21 10:33N 33°37' E 130°24'0 0.0
2015-Aug-21 09:28N 33°37' E 130°24'0 0.0
2015-Aug-21 08:31N 33°37' E 130°24'0 0.0
2015-Aug-21 07:31N 33°37' E 130°24'0 0.0
2015-Aug-21 06:30N 33°37' E 130°24'0 0.2
2015-Aug-21 05:33N 33°37' E 130°24'9 9.2
2015-Aug-21 04:33N 33°43' E 130°15'  

Dump ship's entire track history